sensor_id;sensor_type;location;lat;lon;timestamp;P1;durP1;ratioP1;P2;durP2;ratioP2
57663;SDS011;43493;53.098;6.064;2023-07-31T00:00:15;9.23;;;3.60;;
57663;SDS011;43493;53.098;6.064;2023-07-31T00:02:41;11.77;;;3.57;;
57663;SDS011;43493;53.098;6.064;2023-07-31T00:05:08;7.80;;;2.60;;
57663;SDS011;43493;53.098;6.064;2023-07-31T00:07:34;7.37;;;2.53;;
57663;SDS011;43493;53.098;6.064;2023-07-31T00:09:59;6.50;;;2.43;;
57663;SDS011;43493;53.098;6.064;2023-07-31T00:12:25;7.80;;;2.20;;
57663;SDS011;43493;53.098;6.064;2023-07-31T00:14:51;8.13;;;2.80;;
57663;SDS011;43493;53.098;6.064;2023-07-31T00:17:17;6.20;;;2.10;;
57663;SDS011;43493;53.098;6.064;2023-07-31T00:19:42;5.93;;;2.30;;
57663;SDS011;43493;53.098;6.064;2023-07-31T00:22:08;6.97;;;1.90;;
57663;SDS011;43493;53.098;6.064;2023-07-31T00:24:34;4.23;;;1.90;;
57663;SDS011;43493;53.098;6.064;2023-07-31T00:27:00;7.23;;;2.00;;
57663;SDS011;43493;53.098;6.064;2023-07-31T00:29:25;6.37;;;1.90;;
57663;SDS011;43493;53.098;6.064;2023-07-31T00:31:51;7.20;;;2.30;;
57663;SDS011;43493;53.098;6.064;2023-07-31T00:34:16;8.83;;;2.27;;
57663;SDS011;43493;53.098;6.064;2023-07-31T00:36:42;5.73;;;2.03;;
57663;SDS011;43493;53.098;6.064;2023-07-31T00:39:08;4.83;;;2.00;;
57663;SDS011;43493;53.098;6.064;2023-07-31T00:41:33;4.93;;;1.87;;
57663;SDS011;43493;53.098;6.064;2023-07-31T00:43:59;5.57;;;2.27;;
57663;SDS011;43493;53.098;6.064;2023-07-31T00:46:25;7.53;;;2.30;;
57663;SDS011;43493;53.098;6.064;2023-07-31T00:48:51;4.40;;;2.43;;
57663;SDS011;43493;53.098;6.064;2023-07-31T00:51:16;4.80;;;2.30;;
57663;SDS011;43493;53.098;6.064;2023-07-31T00:53:42;4.87;;;2.10;;
57663;SDS011;43493;53.098;6.064;2023-07-31T00:56:08;4.50;;;2.00;;
57663;SDS011;43493;53.098;6.064;2023-07-31T00:58:36;5.10;;;2.00;;
57663;SDS011;43493;53.098;6.064;2023-07-31T01:01:01;6.13;;;2.00;;
57663;SDS011;43493;53.098;6.064;2023-07-31T01:03:27;5.33;;;2.20;;
57663;SDS011;43493;53.098;6.064;2023-07-31T01:06:13;4.03;;;1.83;;
57663;SDS011;43493;53.098;6.064;2023-07-31T01:09:04;5.03;;;1.70;;
57663;SDS011;43493;53.098;6.064;2023-07-31T01:11:33;5.40;;;1.87;;
57663;SDS011;43493;53.098;6.064;2023-07-31T01:14:03;5.22;;;2.10;;
57663;SDS011;43493;53.098;6.064;2023-07-31T01:16:29;6.60;;;2.10;;
57663;SDS011;43493;53.098;6.064;2023-07-31T01:18:54;5.73;;;2.30;;
57663;SDS011;43493;53.098;6.064;2023-07-31T01:24:08;3.77;;;1.60;;
57663;SDS011;43493;53.098;6.064;2023-07-31T01:31:40;7.20;;;2.13;;
57663;SDS011;43493;53.098;6.064;2023-07-31T01:34:09;4.70;;;1.97;;
57663;SDS011;43493;53.098;6.064;2023-07-31T01:36:36;3.50;;;1.60;;
57663;SDS011;43493;53.098;6.064;2023-07-31T01:39:02;6.23;;;1.70;;
57663;SDS011;43493;53.098;6.064;2023-07-31T01:41:29;3.00;;;1.60;;
57663;SDS011;43493;53.098;6.064;2023-07-31T01:43:54;4.20;;;1.63;;
57663;SDS011;43493;53.098;6.064;2023-07-31T01:46:20;6.20;;;1.60;;
57663;SDS011;43493;53.098;6.064;2023-07-31T01:48:46;5.03;;;2.07;;
57663;SDS011;43493;53.098;6.064;2023-07-31T01:51:11;3.23;;;1.77;;
57663;SDS011;43493;53.098;6.064;2023-07-31T01:53:37;8.87;;;2.07;;
57663;SDS011;43493;53.098;6.064;2023-07-31T01:56:03;7.10;;;1.97;;
57663;SDS011;43493;53.098;6.064;2023-07-31T01:58:29;5.23;;;1.90;;
57663;SDS011;43493;53.098;6.064;2023-07-31T02:00:54;5.67;;;2.10;;
57663;SDS011;43493;53.098;6.064;2023-07-31T02:03:21;9.07;;;2.30;;
57663;SDS011;43493;53.098;6.064;2023-07-31T02:05:48;6.97;;;2.30;;
57663;SDS011;43493;53.098;6.064;2023-07-31T02:08:14;7.30;;;2.07;;
57663;SDS011;43493;53.098;6.064;2023-07-31T02:10:40;6.90;;;2.63;;
57663;SDS011;43493;53.098;6.064;2023-07-31T02:13:06;6.67;;;2.53;;
57663;SDS011;43493;53.098;6.064;2023-07-31T02:15:32;8.83;;;2.40;;
57663;SDS011;43493;53.098;6.064;2023-07-31T02:17:58;5.97;;;2.37;;
57663;SDS011;43493;53.098;6.064;2023-07-31T02:20:24;8.50;;;2.50;;
57663;SDS011;43493;53.098;6.064;2023-07-31T02:22:50;6.77;;;2.20;;
57663;SDS011;43493;53.098;6.064;2023-07-31T02:25:15;6.77;;;2.10;;
57663;SDS011;43493;53.098;6.064;2023-07-31T02:27:41;5.17;;;1.70;;
57663;SDS011;43493;53.098;6.064;2023-07-31T02:30:07;7.27;;;2.13;;
57663;SDS011;43493;53.098;6.064;2023-07-31T02:32:33;6.63;;;2.20;;
57663;SDS011;43493;53.098;6.064;2023-07-31T02:34:58;5.20;;;2.07;;
57663;SDS011;43493;53.098;6.064;2023-07-31T02:37:25;5.57;;;1.83;;
57663;SDS011;43493;53.098;6.064;2023-07-31T02:39:51;7.77;;;2.30;;
57663;SDS011;43493;53.098;6.064;2023-07-31T02:42:17;5.60;;;2.20;;
57663;SDS011;43493;53.098;6.064;2023-07-31T02:44:42;6.20;;;2.00;;
57663;SDS011;43493;53.098;6.064;2023-07-31T02:47:08;4.80;;;1.77;;
57663;SDS011;43493;53.098;6.064;2023-07-31T02:49:34;5.13;;;2.03;;
57663;SDS011;43493;53.098;6.064;2023-07-31T02:51:59;4.70;;;1.80;;
57663;SDS011;43493;53.098;6.064;2023-07-31T02:54:25;5.43;;;1.83;;
57663;SDS011;43493;53.098;6.064;2023-07-31T02:56:51;4.87;;;1.83;;
57663;SDS011;43493;53.098;6.064;2023-07-31T02:59:16;3.97;;;1.90;;
57663;SDS011;43493;53.098;6.064;2023-07-31T03:01:43;9.00;;;2.07;;
57663;SDS011;43493;53.098;6.064;2023-07-31T03:04:09;7.50;;;2.20;;
57663;SDS011;43493;53.098;6.064;2023-07-31T03:06:34;6.80;;;2.10;;
57663;SDS011;43493;53.098;6.064;2023-07-31T03:09:00;6.40;;;1.80;;
57663;SDS011;43493;53.098;6.064;2023-07-31T03:11:26;5.90;;;2.20;;
57663;SDS011;43493;53.098;6.064;2023-07-31T03:13:51;5.77;;;2.00;;
57663;SDS011;43493;53.098;6.064;2023-07-31T03:16:17;5.50;;;1.60;;
57663;SDS011;43493;53.098;6.064;2023-07-31T03:18:43;4.13;;;1.63;;
57663;SDS011;43493;53.098;6.064;2023-07-31T03:21:09;4.17;;;1.73;;
57663;SDS011;43493;53.098;6.064;2023-07-31T03:23:34;4.27;;;1.50;;
57663;SDS011;43493;53.098;6.064;2023-07-31T03:26:01;4.73;;;1.50;;
57663;SDS011;43493;53.098;6.064;2023-07-31T03:28:30;3.90;;;1.50;;
57663;SDS011;43493;53.098;6.064;2023-07-31T03:30:56;1.67;;;1.10;;
57663;SDS011;43493;53.098;6.064;2023-07-31T03:33:22;3.87;;;1.27;;
57663;SDS011;43493;53.098;6.064;2023-07-31T03:35:48;4.27;;;1.40;;
57663;SDS011;43493;53.098;6.064;2023-07-31T03:38:14;3.37;;;1.50;;
57663;SDS011;43493;53.098;6.064;2023-07-31T03:40:39;2.13;;;1.53;;
57663;SDS011;43493;53.098;6.064;2023-07-31T03:43:05;3.57;;;1.40;;
57663;SDS011;43493;53.098;6.064;2023-07-31T03:45:31;4.20;;;1.40;;
57663;SDS011;43493;53.098;6.064;2023-07-31T03:47:57;3.00;;;1.50;;
57663;SDS011;43493;53.098;6.064;2023-07-31T03:50:23;4.07;;;1.70;;
57663;SDS011;43493;53.098;6.064;2023-07-31T03:52:50;4.03;;;1.50;;
57663;SDS011;43493;53.098;6.064;2023-07-31T03:55:16;4.20;;;1.50;;
57663;SDS011;43493;53.098;6.064;2023-07-31T03:57:41;3.50;;;1.43;;
57663;SDS011;43493;53.098;6.064;2023-07-31T04:00:07;3.77;;;1.40;;
57663;SDS011;43493;53.098;6.064;2023-07-31T04:02:33;3.43;;;1.73;;
57663;SDS011;43493;53.098;6.064;2023-07-31T04:04:59;3.33;;;1.43;;
57663;SDS011;43493;53.098;6.064;2023-07-31T04:07:25;3.00;;;1.30;;
57663;SDS011;43493;53.098;6.064;2023-07-31T04:09:50;2.43;;;1.33;;
57663;SDS011;43493;53.098;6.064;2023-07-31T04:12:16;5.23;;;1.63;;
57663;SDS011;43493;53.098;6.064;2023-07-31T04:14:42;4.57;;;1.90;;
57663;SDS011;43493;53.098;6.064;2023-07-31T04:17:07;3.87;;;1.47;;
57663;SDS011;43493;53.098;6.064;2023-07-31T04:19:33;3.63;;;1.70;;
57663;SDS011;43493;53.098;6.064;2023-07-31T04:21:59;3.93;;;1.40;;
57663;SDS011;43493;53.098;6.064;2023-07-31T04:24:24;2.57;;;1.60;;
57663;SDS011;43493;53.098;6.064;2023-07-31T04:26:50;2.53;;;1.70;;
57663;SDS011;43493;53.098;6.064;2023-07-31T04:29:17;3.83;;;1.50;;
57663;SDS011;43493;53.098;6.064;2023-07-31T04:31:43;3.20;;;1.40;;
57663;SDS011;43493;53.098;6.064;2023-07-31T04:34:08;5.13;;;1.90;;
57663;SDS011;43493;53.098;6.064;2023-07-31T04:36:34;4.80;;;1.77;;
57663;SDS011;43493;53.098;6.064;2023-07-31T04:39:00;2.60;;;1.60;;
57663;SDS011;43493;53.098;6.064;2023-07-31T04:41:26;3.70;;;1.80;;
57663;SDS011;43493;53.098;6.064;2023-07-31T04:43:53;5.27;;;2.20;;
57663;SDS011;43493;53.098;6.064;2023-07-31T04:46:18;5.20;;;2.40;;
57663;SDS011;43493;53.098;6.064;2023-07-31T04:48:44;7.13;;;2.77;;
57663;SDS011;43493;53.098;6.064;2023-07-31T04:51:10;7.80;;;3.20;;
57663;SDS011;43493;53.098;6.064;2023-07-31T04:53:36;11.63;;;3.20;;
57663;SDS011;43493;53.098;6.064;2023-07-31T04:56:01;11.23;;;3.20;;
57663;SDS011;43493;53.098;6.064;2023-07-31T04:58:27;8.90;;;3.40;;
57663;SDS011;43493;53.098;6.064;2023-07-31T05:00:53;7.87;;;2.73;;
57663;SDS011;43493;53.098;6.064;2023-07-31T05:03:19;6.70;;;2.93;;
57663;SDS011;43493;53.098;6.064;2023-07-31T05:05:44;7.10;;;3.17;;
57663;SDS011;43493;53.098;6.064;2023-07-31T05:08:10;6.03;;;2.43;;
57663;SDS011;43493;53.098;6.064;2023-07-31T05:10:36;6.57;;;2.37;;
57663;SDS011;43493;53.098;6.064;2023-07-31T05:13:01;6.03;;;2.80;;
57663;SDS011;43493;53.098;6.064;2023-07-31T05:15:28;9.17;;;2.67;;
57663;SDS011;43493;53.098;6.064;2023-07-31T05:17:53;6.80;;;2.37;;
57663;SDS011;43493;53.098;6.064;2023-07-31T05:20:20;6.43;;;2.60;;
57663;SDS011;43493;53.098;6.064;2023-07-31T05:22:46;7.20;;;3.17;;
57663;SDS011;43493;53.098;6.064;2023-07-31T05:25:11;7.87;;;3.17;;
57663;SDS011;43493;53.098;6.064;2023-07-31T05:27:37;6.90;;;3.10;;
57663;SDS011;43493;53.098;6.064;2023-07-31T05:30:03;10.47;;;3.37;;
57663;SDS011;43493;53.098;6.064;2023-07-31T05:32:30;10.00;;;3.03;;
57663;SDS011;43493;53.098;6.064;2023-07-31T05:34:56;11.23;;;3.97;;
57663;SDS011;43493;53.098;6.064;2023-07-31T05:37:22;11.43;;;3.83;;
57663;SDS011;43493;53.098;6.064;2023-07-31T05:39:47;10.87;;;4.27;;
57663;SDS011;43493;53.098;6.064;2023-07-31T05:42:13;12.73;;;4.60;;
57663;SDS011;43493;53.098;6.064;2023-07-31T05:44:39;17.83;;;5.67;;
57663;SDS011;43493;53.098;6.064;2023-07-31T05:47:05;18.97;;;5.63;;
57663;SDS011;43493;53.098;6.064;2023-07-31T05:49:30;20.80;;;7.03;;
57663;SDS011;43493;53.098;6.064;2023-07-31T05:51:56;21.70;;;7.50;;
57663;SDS011;43493;53.098;6.064;2023-07-31T05:54:22;22.00;;;7.23;;
57663;SDS011;43493;53.098;6.064;2023-07-31T05:56:47;22.83;;;7.57;;
57663;SDS011;43493;53.098;6.064;2023-07-31T05:59:13;24.23;;;7.47;;
57663;SDS011;43493;53.098;6.064;2023-07-31T06:01:39;20.97;;;8.03;;
57663;SDS011;43493;53.098;6.064;2023-07-31T06:04:05;23.93;;;7.23;;
57663;SDS011;43493;53.098;6.064;2023-07-31T06:06:30;28.07;;;8.07;;
57663;SDS011;43493;53.098;6.064;2023-07-31T06:08:56;27.23;;;8.20;;
57663;SDS011;43493;53.098;6.064;2023-07-31T06:11:22;20.40;;;7.60;;
57663;SDS011;43493;53.098;6.064;2023-07-31T06:13:48;24.77;;;7.33;;
57663;SDS011;43493;53.098;6.064;2023-07-31T06:16:15;28.80;;;7.73;;
57663;SDS011;43493;53.098;6.064;2023-07-31T06:18:41;25.80;;;8.30;;
57663;SDS011;43493;53.098;6.064;2023-07-31T06:21:07;22.10;;;6.73;;
57663;SDS011;43493;53.098;6.064;2023-07-31T06:23:33;24.80;;;7.60;;
57663;SDS011;43493;53.098;6.064;2023-07-31T06:25:59;20.87;;;7.23;;
57663;SDS011;43493;53.098;6.064;2023-07-31T06:28:28;18.13;;;7.47;;
57663;SDS011;43493;53.098;6.064;2023-07-31T06:30:54;23.80;;;6.40;;
57663;SDS011;43493;53.098;6.064;2023-07-31T06:33:20;22.63;;;7.97;;
57663;SDS011;43493;53.098;6.064;2023-07-31T06:35:46;21.43;;;7.93;;
57663;SDS011;43493;53.098;6.064;2023-07-31T06:38:11;21.23;;;6.90;;
57663;SDS011;43493;53.098;6.064;2023-07-31T06:40:37;17.87;;;6.20;;
57663;SDS011;43493;53.098;6.064;2023-07-31T06:43:03;16.90;;;5.83;;
57663;SDS011;43493;53.098;6.064;2023-07-31T06:45:36;18.23;;;6.57;;
57663;SDS011;43493;53.098;6.064;2023-07-31T06:48:03;19.27;;;5.80;;
57663;SDS011;43493;53.098;6.064;2023-07-31T06:50:32;17.77;;;6.30;;
57663;SDS011;43493;53.098;6.064;2023-07-31T06:52:58;20.23;;;6.03;;
57663;SDS011;43493;53.098;6.064;2023-07-31T06:55:26;16.37;;;4.60;;
57663;SDS011;43493;53.098;6.064;2023-07-31T06:57:53;15.10;;;4.87;;
57663;SDS011;43493;53.098;6.064;2023-07-31T07:00:20;13.40;;;5.00;;
57663;SDS011;43493;53.098;6.064;2023-07-31T07:02:47;12.50;;;4.00;;
57663;SDS011;43493;53.098;6.064;2023-07-31T07:05:13;8.97;;;3.47;;
57663;SDS011;43493;53.098;6.064;2023-07-31T07:07:40;12.07;;;3.97;;
57663;SDS011;43493;53.098;6.064;2023-07-31T07:10:06;11.10;;;3.90;;
57663;SDS011;43493;53.098;6.064;2023-07-31T07:12:33;8.53;;;3.23;;
57663;SDS011;43493;53.098;6.064;2023-07-31T07:14:59;8.63;;;3.60;;
57663;SDS011;43493;53.098;6.064;2023-07-31T07:17:25;14.13;;;4.20;;
57663;SDS011;43493;53.098;6.064;2023-07-31T07:19:52;13.23;;;4.67;;
57663;SDS011;43493;53.098;6.064;2023-07-31T07:22:18;9.20;;;3.47;;
57663;SDS011;43493;53.098;6.064;2023-07-31T07:24:44;11.00;;;3.60;;
57663;SDS011;43493;53.098;6.064;2023-07-31T07:27:10;8.10;;;3.50;;
57663;SDS011;43493;53.098;6.064;2023-07-31T07:29:38;6.17;;;2.60;;
57663;SDS011;43493;53.098;6.064;2023-07-31T07:32:04;7.30;;;2.47;;
57663;SDS011;43493;53.098;6.064;2023-07-31T07:34:30;5.93;;;2.23;;
57663;SDS011;43493;53.098;6.064;2023-07-31T07:36:56;6.90;;;2.00;;
57663;SDS011;43493;53.098;6.064;2023-07-31T07:39:21;4.73;;;1.80;;
57663;SDS011;43493;53.098;6.064;2023-07-31T07:41:47;3.73;;;1.80;;
57663;SDS011;43493;53.098;6.064;2023-07-31T07:44:13;3.23;;;1.37;;
57663;SDS011;43493;53.098;6.064;2023-07-31T07:46:39;1.87;;;1.00;;
57663;SDS011;43493;53.098;6.064;2023-07-31T07:49:05;2.07;;;0.97;;
57663;SDS011;43493;53.098;6.064;2023-07-31T07:51:30;2.23;;;1.07;;
57663;SDS011;43493;53.098;6.064;2023-07-31T07:53:57;1.90;;;0.90;;
57663;SDS011;43493;53.098;6.064;2023-07-31T07:56:23;2.50;;;1.10;;
57663;SDS011;43493;53.098;6.064;2023-07-31T07:58:50;1.90;;;0.90;;
57663;SDS011;43493;53.098;6.064;2023-07-31T08:01:16;1.40;;;0.77;;
57663;SDS011;43493;53.098;6.064;2023-07-31T08:03:41;2.10;;;1.10;;
57663;SDS011;43493;53.098;6.064;2023-07-31T08:06:07;2.33;;;1.00;;
57663;SDS011;43493;53.098;6.064;2023-07-31T08:08:34;1.40;;;0.90;;
57663;SDS011;43493;53.098;6.064;2023-07-31T08:11:01;1.70;;;0.90;;
57663;SDS011;43493;53.098;6.064;2023-07-31T08:13:27;2.17;;;1.00;;
57663;SDS011;43493;53.098;6.064;2023-07-31T08:15:52;1.87;;;0.90;;
57663;SDS011;43493;53.098;6.064;2023-07-31T08:18:18;2.67;;;1.20;;
57663;SDS011;43493;53.098;6.064;2023-07-31T08:20:44;2.17;;;1.00;;
57663;SDS011;43493;53.098;6.064;2023-07-31T08:23:10;1.90;;;0.90;;
57663;SDS011;43493;53.098;6.064;2023-07-31T08:25:36;2.00;;;0.80;;
57663;SDS011;43493;53.098;6.064;2023-07-31T08:28:02;2.10;;;1.10;;
57663;SDS011;43493;53.098;6.064;2023-07-31T08:30:29;1.50;;;1.00;;
57663;SDS011;43493;53.098;6.064;2023-07-31T08:32:55;1.63;;;0.90;;
57663;SDS011;43493;53.098;6.064;2023-07-31T08:35:21;1.43;;;1.00;;
57663;SDS011;43493;53.098;6.064;2023-07-31T08:37:47;1.57;;;0.80;;
57663;SDS011;43493;53.098;6.064;2023-07-31T08:40:12;1.30;;;0.83;;
57663;SDS011;43493;53.098;6.064;2023-07-31T08:42:48;1.83;;;0.93;;
57663;SDS011;43493;53.098;6.064;2023-07-31T08:45:15;2.77;;;1.10;;
57663;SDS011;43493;53.098;6.064;2023-07-31T08:47:44;1.90;;;0.90;;
57663;SDS011;43493;53.098;6.064;2023-07-31T08:50:12;3.27;;;1.07;;
57663;SDS011;43493;53.098;6.064;2023-07-31T08:52:42;3.67;;;0.93;;
57663;SDS011;43493;53.098;6.064;2023-07-31T08:55:08;2.07;;;1.20;;
57663;SDS011;43493;53.098;6.064;2023-07-31T08:57:35;8.00;;;1.83;;
57663;SDS011;43493;53.098;6.064;2023-07-31T09:00:06;4.37;;;1.47;;
57663;SDS011;43493;53.098;6.064;2023-07-31T09:02:46;3.37;;;1.43;;
57663;SDS011;43493;53.098;6.064;2023-07-31T09:05:17;2.43;;;1.40;;
57663;SDS011;43493;53.098;6.064;2023-07-31T09:07:45;2.93;;;1.20;;
57663;SDS011;43493;53.098;6.064;2023-07-31T09:10:12;3.60;;;1.50;;
57663;SDS011;43493;53.098;6.064;2023-07-31T09:12:39;4.93;;;1.50;;
57663;SDS011;43493;53.098;6.064;2023-07-31T09:15:05;3.60;;;1.60;;
57663;SDS011;43493;53.098;6.064;2023-07-31T09:17:35;4.00;;;1.50;;
57663;SDS011;43493;53.098;6.064;2023-07-31T09:20:20;2.07;;;1.10;;
57663;SDS011;43493;53.098;6.064;2023-07-31T09:22:47;5.38;;;1.10;;
57663;SDS011;43493;53.098;6.064;2023-07-31T09:27:50;1.73;;;0.73;;
57663;SDS011;43493;53.098;6.064;2023-07-31T09:32:44;1.60;;;0.70;;
57663;SDS011;43493;53.098;6.064;2023-07-31T09:35:20;2.57;;;1.00;;
57663;SDS011;43493;53.098;6.064;2023-07-31T09:37:53;1.37;;;0.70;;
57663;SDS011;43493;53.098;6.064;2023-07-31T09:40:31;2.17;;;0.90;;
57663;SDS011;43493;53.098;6.064;2023-07-31T09:43:02;7.57;;;1.23;;
57663;SDS011;43493;53.098;6.064;2023-07-31T09:45:29;4.23;;;1.53;;
57663;SDS011;43493;53.098;6.064;2023-07-31T09:47:58;1.63;;;0.90;;
57663;SDS011;43493;53.098;6.064;2023-07-31T09:50:24;3.27;;;1.00;;
57663;SDS011;43493;53.098;6.064;2023-07-31T09:52:51;3.30;;;0.93;;
57663;SDS011;43493;53.098;6.064;2023-07-31T09:55:17;1.90;;;0.80;;
57663;SDS011;43493;53.098;6.064;2023-07-31T09:57:45;1.57;;;0.83;;
57663;SDS011;43493;53.098;6.064;2023-07-31T10:00:12;2.57;;;0.80;;
57663;SDS011;43493;53.098;6.064;2023-07-31T10:02:40;0.67;;;0.60;;
57663;SDS011;43493;53.098;6.064;2023-07-31T10:05:07;2.00;;;0.80;;
57663;SDS011;43493;53.098;6.064;2023-07-31T10:07:38;1.13;;;0.70;;
57663;SDS011;43493;53.098;6.064;2023-07-31T10:10:07;0.87;;;0.67;;
57663;SDS011;43493;53.098;6.064;2023-07-31T10:12:36;2.23;;;0.80;;
57663;SDS011;43493;53.098;6.064;2023-07-31T10:15:03;2.30;;;0.70;;
57663;SDS011;43493;53.098;6.064;2023-07-31T10:17:30;1.73;;;0.70;;
57663;SDS011;43493;53.098;6.064;2023-07-31T10:19:57;0.70;;;0.70;;
57663;SDS011;43493;53.098;6.064;2023-07-31T10:22:26;0.87;;;0.73;;
57663;SDS011;43493;53.098;6.064;2023-07-31T10:24:52;1.80;;;0.90;;
57663;SDS011;43493;53.098;6.064;2023-07-31T10:27:20;1.97;;;0.90;;
57663;SDS011;43493;53.098;6.064;2023-07-31T10:29:46;1.30;;;0.83;;
57663;SDS011;43493;53.098;6.064;2023-07-31T10:32:14;2.13;;;1.00;;
57663;SDS011;43493;53.098;6.064;2023-07-31T10:34:42;1.13;;;0.77;;
57663;SDS011;43493;53.098;6.064;2023-07-31T10:37:21;2.20;;;0.90;;
57663;SDS011;43493;53.098;6.064;2023-07-31T10:39:57;1.85;;;0.98;;
57663;SDS011;43493;53.098;6.064;2023-07-31T10:42:35;2.00;;;1.10;;
57663;SDS011;43493;53.098;6.064;2023-07-31T10:45:07;4.73;;;1.27;;
57663;SDS011;43493;53.098;6.064;2023-07-31T10:47:45;2.40;;;1.33;;
57663;SDS011;43493;53.098;6.064;2023-07-31T10:52:48;2.40;;;1.00;;
57663;SDS011;43493;53.098;6.064;2023-07-31T10:55:28;2.17;;;1.00;;
57663;SDS011;43493;53.098;6.064;2023-07-31T10:58:08;3.07;;;1.47;;
57663;SDS011;43493;53.098;6.064;2023-07-31T11:00:42;1.93;;;1.00;;
57663;SDS011;43493;53.098;6.064;2023-07-31T11:03:10;2.77;;;1.07;;
57663;SDS011;43493;53.098;6.064;2023-07-31T11:08:23;3.10;;;1.33;;
57663;SDS011;43493;53.098;6.064;2023-07-31T11:11:14;1.83;;;0.90;;
57663;SDS011;43493;53.098;6.064;2023-07-31T11:13:42;2.43;;;1.10;;
57663;SDS011;43493;53.098;6.064;2023-07-31T11:16:15;4.82;;;1.63;;
57663;SDS011;43493;53.098;6.064;2023-07-31T11:18:43;4.53;;;1.40;;
57663;SDS011;43493;53.098;6.064;2023-07-31T11:21:13;5.13;;;1.70;;
57663;SDS011;43493;53.098;6.064;2023-07-31T11:23:41;5.03;;;1.80;;
57663;SDS011;43493;53.098;6.064;2023-07-31T11:26:10;3.87;;;1.40;;
57663;SDS011;43493;53.098;6.064;2023-07-31T11:28:36;3.40;;;1.50;;
57663;SDS011;43493;53.098;6.064;2023-07-31T11:31:03;4.63;;;1.60;;
57663;SDS011;43493;53.098;6.064;2023-07-31T11:33:30;6.10;;;1.50;;
57663;SDS011;43493;53.098;6.064;2023-07-31T11:35:56;4.93;;;2.10;;
57663;SDS011;43493;53.098;6.064;2023-07-31T11:38:32;7.33;;;1.80;;
57663;SDS011;43493;53.098;6.064;2023-07-31T11:41:02;7.37;;;2.03;;
57663;SDS011;43493;53.098;6.064;2023-07-31T11:43:28;4.37;;;1.63;;
57663;SDS011;43493;53.098;6.064;2023-07-31T11:45:57;7.63;;;2.10;;
57663;SDS011;43493;53.098;6.064;2023-07-31T11:48:28;7.83;;;2.00;;
57663;SDS011;43493;53.098;6.064;2023-07-31T11:50:58;6.37;;;2.20;;
57663;SDS011;43493;53.098;6.064;2023-07-31T11:53:26;5.80;;;1.90;;
57663;SDS011;43493;53.098;6.064;2023-07-31T11:56:11;6.67;;;2.03;;
57663;SDS011;43493;53.098;6.064;2023-07-31T11:58:39;5.87;;;2.33;;
57663;SDS011;43493;53.098;6.064;2023-07-31T12:01:08;7.30;;;2.40;;
57663;SDS011;43493;53.098;6.064;2023-07-31T12:03:34;10.07;;;2.27;;
57663;SDS011;43493;53.098;6.064;2023-07-31T12:06:01;7.13;;;2.20;;
57663;SDS011;43493;53.098;6.064;2023-07-31T12:08:27;7.80;;;2.50;;
57663;SDS011;43493;53.098;6.064;2023-07-31T12:10:53;8.30;;;2.37;;
57663;SDS011;43493;53.098;6.064;2023-07-31T12:13:23;7.43;;;2.50;;
57663;SDS011;43493;53.098;6.064;2023-07-31T12:15:55;10.53;;;2.73;;
57663;SDS011;43493;53.098;6.064;2023-07-31T12:18:25;12.90;;;2.83;;
57663;SDS011;43493;53.098;6.064;2023-07-31T12:20:59;13.60;;;3.37;;
57663;SDS011;43493;53.098;6.064;2023-07-31T12:23:26;10.27;;;2.73;;
57663;SDS011;43493;53.098;6.064;2023-07-31T12:26:07;9.73;;;2.90;;
57663;SDS011;43493;53.098;6.064;2023-07-31T12:28:46;9.97;;;2.50;;
57663;SDS011;43493;53.098;6.064;2023-07-31T12:31:17;9.43;;;2.80;;
57663;SDS011;43493;53.098;6.064;2023-07-31T12:33:44;7.90;;;2.40;;
57663;SDS011;43493;53.098;6.064;2023-07-31T12:36:12;11.23;;;3.07;;
57663;SDS011;43493;53.098;6.064;2023-07-31T12:38:40;8.07;;;2.73;;
57663;SDS011;43493;53.098;6.064;2023-07-31T12:41:06;11.93;;;3.07;;
57663;SDS011;43493;53.098;6.064;2023-07-31T12:43:32;9.57;;;2.90;;
57663;SDS011;43493;53.098;6.064;2023-07-31T12:45:59;11.17;;;2.53;;
57663;SDS011;43493;53.098;6.064;2023-07-31T12:48:25;11.87;;;3.07;;
57663;SDS011;43493;53.098;6.064;2023-07-31T12:50:50;8.67;;;2.60;;
57663;SDS011;43493;53.098;6.064;2023-07-31T12:53:16;11.33;;;2.87;;
57663;SDS011;43493;53.098;6.064;2023-07-31T12:55:42;9.20;;;2.47;;
57663;SDS011;43493;53.098;6.064;2023-07-31T12:58:07;8.40;;;2.77;;
57663;SDS011;43493;53.098;6.064;2023-07-31T13:00:33;10.07;;;2.77;;
57663;SDS011;43493;53.098;6.064;2023-07-31T13:02:59;9.00;;;2.70;;
57663;SDS011;43493;53.098;6.064;2023-07-31T13:05:26;7.93;;;3.03;;
57663;SDS011;43493;53.098;6.064;2023-07-31T13:07:52;7.30;;;2.50;;
57663;SDS011;43493;53.098;6.064;2023-07-31T13:10:18;9.10;;;2.87;;
57663;SDS011;43493;53.098;6.064;2023-07-31T13:12:44;8.57;;;2.73;;
57663;SDS011;43493;53.098;6.064;2023-07-31T13:15:10;9.30;;;2.93;;
57663;SDS011;43493;53.098;6.064;2023-07-31T13:17:37;7.80;;;2.83;;
57663;SDS011;43493;53.098;6.064;2023-07-31T13:20:02;9.27;;;2.97;;
57663;SDS011;43493;53.098;6.064;2023-07-31T13:22:29;9.70;;;2.87;;
57663;SDS011;43493;53.098;6.064;2023-07-31T13:24:54;9.63;;;3.03;;
57663;SDS011;43493;53.098;6.064;2023-07-31T13:27:20;8.43;;;2.53;;
57663;SDS011;43493;53.098;6.064;2023-07-31T13:29:49;8.13;;;3.20;;
57663;SDS011;43493;53.098;6.064;2023-07-31T13:32:19;6.67;;;2.93;;
57663;SDS011;43493;53.098;6.064;2023-07-31T13:34:46;12.77;;;3.30;;
57663;SDS011;43493;53.098;6.064;2023-07-31T13:37:12;8.43;;;3.20;;
57663;SDS011;43493;53.098;6.064;2023-07-31T13:39:38;7.27;;;2.90;;
57663;SDS011;43493;53.098;6.064;2023-07-31T13:42:05;9.07;;;2.83;;
57663;SDS011;43493;53.098;6.064;2023-07-31T13:44:33;7.43;;;3.13;;
57663;SDS011;43493;53.098;6.064;2023-07-31T13:47:02;7.90;;;3.00;;
57663;SDS011;43493;53.098;6.064;2023-07-31T13:49:28;8.33;;;3.30;;
57663;SDS011;43493;53.098;6.064;2023-07-31T13:51:54;12.00;;;4.57;;
57663;SDS011;43493;53.098;6.064;2023-07-31T13:54:20;10.37;;;3.93;;
57663;SDS011;43493;53.098;6.064;2023-07-31T13:56:47;12.23;;;3.47;;
57663;SDS011;43493;53.098;6.064;2023-07-31T13:59:12;11.83;;;3.90;;
57663;SDS011;43493;53.098;6.064;2023-07-31T14:01:40;11.93;;;3.97;;
57663;SDS011;43493;53.098;6.064;2023-07-31T14:04:05;10.90;;;4.20;;
57663;SDS011;43493;53.098;6.064;2023-07-31T14:06:31;10.67;;;3.90;;
57663;SDS011;43493;53.098;6.064;2023-07-31T14:08:57;10.07;;;3.87;;
57663;SDS011;43493;53.098;6.064;2023-07-31T14:11:22;13.53;;;4.87;;
57663;SDS011;43493;53.098;6.064;2023-07-31T14:13:49;14.67;;;4.20;;
57663;SDS011;43493;53.098;6.064;2023-07-31T14:16:16;12.70;;;3.63;;
57663;SDS011;43493;53.098;6.064;2023-07-31T14:18:42;10.80;;;3.47;;
57663;SDS011;43493;53.098;6.064;2023-07-31T14:21:08;8.13;;;3.10;;
57663;SDS011;43493;53.098;6.064;2023-07-31T14:23:34;10.80;;;4.30;;
57663;SDS011;43493;53.098;6.064;2023-07-31T14:26:00;10.23;;;3.63;;
57663;SDS011;43493;53.098;6.064;2023-07-31T14:28:25;9.97;;;3.73;;
57663;SDS011;43493;53.098;6.064;2023-07-31T14:30:51;8.40;;;3.70;;
57663;SDS011;43493;53.098;6.064;2023-07-31T14:33:17;11.73;;;3.80;;
57663;SDS011;43493;53.098;6.064;2023-07-31T14:35:43;7.37;;;3.20;;
57663;SDS011;43493;53.098;6.064;2023-07-31T14:38:08;7.47;;;3.47;;
57663;SDS011;43493;53.098;6.064;2023-07-31T14:40:34;10.67;;;4.13;;
57663;SDS011;43493;53.098;6.064;2023-07-31T14:43:00;10.93;;;3.70;;
57663;SDS011;43493;53.098;6.064;2023-07-31T14:45:25;12.13;;;3.37;;
57663;SDS011;43493;53.098;6.064;2023-07-31T14:47:51;13.27;;;3.50;;
57663;SDS011;43493;53.098;6.064;2023-07-31T14:50:17;10.20;;;3.70;;
57663;SDS011;43493;53.098;6.064;2023-07-31T14:52:43;12.50;;;3.30;;
57663;SDS011;43493;53.098;6.064;2023-07-31T14:55:10;11.93;;;3.27;;
57663;SDS011;43493;53.098;6.064;2023-07-31T14:57:35;9.63;;;3.20;;
57663;SDS011;43493;53.098;6.064;2023-07-31T15:00:01;9.07;;;3.03;;
57663;SDS011;43493;53.098;6.064;2023-07-31T15:02:32;10.90;;;3.87;;